Time;durP1;ratioP1;P1;durP2;ratioP2;P2;SDS_P1;SDS_P2;PMS_P1;PMS_P2;Temp;Humidity;BMP_temperature;BMP_pressure;BME280_temperature;BME280_humidity;BME280_pressure;Samples;Min_cycle;Max_cycle;Signal;HPM_P1;HPM_P2
2021/12/19 00:01:33;;;;;;;21.23;14.97;;;;;;;2.18;100.00;100134.19;5012390;28;20204;-55
2021/12/19 00:04:15;;;;;;;21.97;14.77;;;;;;;2.18;100.00;100129.94;5012287;28;20623;-56
2021/12/19 00:09:27;;;;;;;23.37;16.30;;;;;;;2.12;100.00;100088.91;5012782;28;20710;-62
2021/12/19 00:11:56;;;;;;;22.77;15.47;;;;;;;2.18;100.00;100124.81;5012186;28;20318;-62
2021/12/19 00:14:23;;;;;;;23.83;15.23;;;;;;;2.21;100.00;100121.44;5012257;28;20289;-62
2021/12/19 00:16:51;;;;;;;19.30;14.70;;;;;;;2.07;100.00;100102.44;5012390;28;20337;-56
2021/12/19 00:19:18;;;;;;;24.80;15.30;;;;;;;2.11;100.00;100119.59;5012110;28;20201;-56
2021/12/19 00:21:45;;;;;;;23.30;14.70;;;;;;;1.99;100.00;100120.28;5012180;28;20272;-55
2021/12/19 00:24:12;;;;;;;24.60;15.30;;;;;;;1.94;100.00;100111.66;5012055;28;20201;-56
2021/12/19 00:26:39;;;;;;;20.20;15.43;;;;;;;2.05;100.00;100112.66;5012489;28;20651;-57
2021/12/19 00:29:08;;;;;;;21.50;15.90;;;;;;;2.08;100.00;100109.31;5012120;28;20562;-56
2021/12/19 00:31:37;;;;;;;20.87;14.57;;;;;;;2.16;100.00;100100.88;5012013;28;20209;-55
2021/12/19 00:34:04;;;;;;;21.73;14.17;;;;;;;2.27;100.00;100100.16;5011925;28;20747;-56
2021/12/19 00:36:31;;;;;;;18.90;13.43;;;;;;;2.35;100.00;100106.28;5011936;28;20198;-55
2021/12/19 00:38:58;;;;;;;18.90;12.43;;;;;;;2.36;100.00;100101.19;5011840;28;20194;-56
2021/12/19 00:41:25;;;;;;;14.80;11.27;;;;;;;2.12;100.00;100068.41;5011824;28;20206;-56
2021/12/19 00:43:55;;;;;;;13.50;10.77;;;;;;;2.18;100.00;100062.50;5011858;28;20202;-55
2021/12/19 00:46:26;;;;;;;12.63;10.03;;;;;;;2.28;100.00;100089.09;5011644;28;20225;-55
2021/12/19 00:48:56;;;;;;;14.50;10.30;;;;;;;2.38;100.00;100080.69;5011758;28;20236;-55
2021/12/19 00:51:25;;;;;;;11.57;8.60;;;;;;;2.34;100.00;100079.81;5011590;28;20700;-55
2021/12/19 00:53:54;;;;;;;8.27;7.47;;;;;;;2.34;100.00;100077.25;5011685;28;20226;-61
2021/12/19 00:56:21;;;;;;;8.10;7.23;;;;;;;2.37;100.00;100084.13;5011699;28;20668;-63
2021/12/19 00:58:49;;;;;;;7.80;6.20;;;;;;;2.38;100.00;100080.69;5011487;28;20203;-62
2021/12/19 01:01:17;;;;;;;10.00;6.90;;;;;;;2.39;100.00;100088.38;5011516;28;20643;-62
2021/12/19 01:03:47;;;;;;;7.00;6.23;;;;;;;2.45;100.00;100095.31;5011312;28;20313;-62
2021/12/19 01:06:17;;;;;;;8.43;6.07;;;;;;;2.55;100.00;100087.75;5011472;28;20236;-63
2021/12/19 01:08:44;;;;;;;6.73;6.03;;;;;;;2.38;100.00;100090.94;5011675;28;20691;-61
2021/12/19 01:11:11;;;;;;;7.23;6.47;;;;;;;2.26;100.00;100058.31;5011113;28;20291;-61
2021/12/19 01:13:38;;;;;;;7.37;6.63;;;;;;;2.46;100.00;100068.84;5011183;28;20317;-60
2021/12/19 01:16:06;;;;;;;9.00;7.13;;;;;;;2.51;100.00;100068.06;5011249;28;20205;-62
2021/12/19 01:18:32;;;;;;;7.67;6.20;;;;;;;2.51;100.00;100068.06;5011081;28;20284;-56
2021/12/19 01:21:01;;;;;;;8.03;6.47;;;;;;;2.57;100.00;100064.72;5011115;28;20207;-55
2021/12/19 01:23:28;;;;;;;8.63;6.57;;;;;;;2.61;100.00;100071.59;5011010;28;20214;-62
2021/12/19 01:25:55;;;;;;;8.03;6.67;;;;;;;2.53;100.00;100040.75;5011235;28;20574;-61
2021/12/19 01:28:22;;;;;;;7.90;6.63;;;;;;;2.58;100.00;100070.72;5010830;28;20205;-61
2021/12/19 01:30:49;;;;;;;8.87;7.10;;;;;;;2.63;100.00;100061.34;5010810;28;20208;-61
2021/12/19 01:33:16;;;;;;;7.83;6.70;;;;;;;2.69;100.00;100056.31;5011136;28;20586;-62
2021/12/19 01:35:43;;;;;;;9.93;6.93;;;;;;;2.54;100.00;100027.09;5011249;28;20217;-62
2021/12/19 01:38:12;;;;;;;8.57;6.90;;;;;;;2.79;100.00;100050.44;5010761;28;20294;-62
2021/12/19 01:40:39;;;;;;;8.60;6.77;;;;;;;2.78;100.00;100053.84;5010750;28;20292;-61
2021/12/19 01:43:06;;;;;;;9.20;7.20;;;;;;;2.75;100.00;100056.38;5010646;28;20209;-62
2021/12/19 01:45:36;;;;;;;8.20;6.80;;;;;;;2.72;100.00;100051.22;5010528;28;20195;-62
2021/12/19 01:48:10;;;;;;;8.37;7.47;;;;;;;2.67;100.00;100048.59;5010655;28;20202;-61
2021/12/19 01:50:38;;;;;;;7.47;6.63;;;;;;;2.69;100.00;100036.69;5010771;28;20289;-61
2021/12/19 01:53:07;;;;;;;7.33;6.63;;;;;;;2.84;100.00;100046.22;5010991;28;20676;-62
2021/12/19 01:55:35;;;;;;;9.47;7.10;;;;;;;2.80;100.00;100044.47;5010483;28;20299;-62
2021/12/19 01:58:03;;;;;;;7.83;7.03;;;;;;;2.53;100.00;100039.91;5010491;28;20584;-55
2021/12/19 02:00:34;;;;;;;9.57;7.00;;;;;;;2.43;100.00;100035.50;5010713;28;20293;-55
2021/12/19 02:03:02;;;;;;;8.23;6.97;;;;;;;2.58;100.00;100033.13;5010322;28;20234;-55
2021/12/19 02:05:29;;;;;;;7.30;6.57;;;;;;;2.67;100.00;100033.22;5010357;28;20205;-55
2021/12/19 02:07:58;;;;;;;10.00;6.70;;;;;;;2.64;100.00;100038.31;5010497;28;20196;-55
2021/12/19 02:10:27;;;;;;;6.97;6.27;;;;;;;2.69;100.00;100036.69;5010340;28;20285;-55
2021/12/19 02:12:58;;;;;;;7.10;6.13;;;;;;;2.69;100.00;100034.13;5010356;28;20250;-61
2021/12/19 02:15:27;;;;;;;8.00;6.80;;;;;;;2.58;100.00;100034.84;5010288;28;20221;-61
2021/12/19 02:17:57;;;;;;;7.43;6.37;;;;;;;2.55;100.00;100033.09;5010351;28;20206;-61
2021/12/19 02:20:27;;;;;;;7.10;6.30;;;;;;;2.36;100.00;100003.84;5010369;28;20198;-62
2021/12/19 02:22:53;;;;;;;7.37;6.40;;;;;;;2.54;100.00;100027.09;5009529;28;20247;-61
2021/12/19 02:25:20;;;;;;;7.40;5.70;;;;;;;2.51;100.00;100023.63;5010153;28;20196;-62
2021/12/19 02:27:47;;;;;;;7.73;6.03;;;;;;;2.57;100.00;100020.31;5010274;28;20208;-62
2021/12/19 02:30:15;;;;;;;6.57;5.97;;;;;;;2.52;100.00;100008.28;5010199;28;20201;-61
2021/12/19 02:32:42;;;;;;;7.27;6.23;;;;;;;2.49;100.00;100009.94;5010011;28;20224;-62
2021/12/19 02:35:15;;;;;;;8.20;6.33;;;;;;;2.48;100.00;99998.00;5010002;28;20332;-62
2021/12/19 02:38:19;;;;;;;10.07;6.60;;;;;;;2.39;100.00;100006.41;5009970;28;20210;-62
2021/12/19 02:48:09;;;;;;;7.93;5.80;;;;;;;2.39;100.00;99996.16;5010064;28;20202;-60
2021/12/19 02:49:00;;;;;;;8.93;7.10;;;;;;;2.23;100.00;99988.31;5010170;28;20201;-62
2021/12/19 02:51:32;;;;;;;7.30;6.60;;;;;;;2.15;100.00;99985.63;5010072;28;20687;-62
2021/12/19 02:54:02;;;;;;;8.00;6.53;;;;;;;2.21;100.00;99982.28;5009802;28;20226;-62
2021/12/19 02:56:29;;;;;;;8.13;6.77;;;;;;;2.17;100.00;99974.56;5009801;28;20297;-62
2021/12/19 02:58:56;;;;;;;7.57;6.40;;;;;;;2.26;100.00;99978.94;5009908;28;20194;-62
2021/12/19 03:01:23;;;;;;;7.63;6.93;;;;;;;2.31;100.00;99973.88;5010149;28;20208;-62
2021/12/19 03:03:50;;;;;;;8.00;6.63;;;;;;;2.36;100.00;99978.22;5009789;28;20236;-62
2021/12/19 03:06:17;;;;;;;7.93;6.40;;;;;;;2.36;100.00;99983.34;5009875;28;20285;-61
2021/12/19 03:08:47;;;;;;;8.90;6.83;;;;;;;2.24;100.00;99961.84;5009792;28;20202;-62
2021/12/19 03:19:41;;;;;;;9.93;6.83;;;;;;;2.38;100.00;99979.06;5009854;28;20203;-61
2021/12/19 03:22:08;;;;;;;7.83;6.93;;;;;;;2.48;100.00;99977.50;5009679;28;20671;-62
2021/12/19 03:24:35;;;;;;;7.07;5.83;;;;;;;2.42;100.00;99974.84;5009532;28;20282;-55
2021/12/19 03:27:04;;;;;;;8.33;7.33;;;;;;;2.42;100.00;99975.72;5009605;28;20204;-54
2021/12/19 03:29:31;;;;;;;7.07;6.33;;;;;;;2.37;100.00;99969.66;5009355;28;20202;-56
2021/12/19 03:31:57;;;;;;;8.10;6.43;;;;;;;2.29;100.00;99967.88;5009656;28;20201;-56
2021/12/19 03:34:24;;;;;;;6.77;6.07;;;;;;;2.30;100.00;99965.34;5011373;28;20226;-56
2021/12/19 03:36:52;;;;;;;6.60;5.90;;;;;;;2.36;100.00;99964.56;5013040;28;20205;-56
2021/12/19 03:39:33;;;;;;;8.27;6.57;;;;;;;2.28;100.00;99955.91;5012974;28;20206;-62
2021/12/19 03:42:00;;;;;;;7.83;6.40;;;;;;;2.23;100.00;99955.00;5013096;28;20237;-62
2021/12/19 03:44:28;;;;;;;7.23;6.53;;;;;;;2.40;100.00;99956.03;5013025;28;20232;-63
2021/12/19 03:46:55;;;;;;;7.30;6.60;;;;;;;2.40;100.00;99953.47;5013152;28;20224;-62
2021/12/19 03:49:22;;;;;;;7.40;6.40;;;;;;;2.48;100.00;99947.59;5013004;28;20281;-62
2021/12/19 03:51:49;;;;;;;7.10;6.40;;;;;;;2.37;100.00;99949.19;5013110;28;20293;-62
2021/12/19 03:54:16;;;;;;;7.70;6.43;;;;;;;2.33;100.00;99949.16;5012680;28;20229;-62
2021/12/19 03:56:43;;;;;;;8.33;6.00;;;;;;;2.33;100.00;99950.00;5012546;28;20237;-62
2021/12/19 03:59:10;;;;;;;7.87;5.93;;;;;;;2.42;100.00;99941.56;5012550;28;20194;-62
2021/12/19 04:01:41;;;;;;;6.53;5.80;;;;;;;2.41;100.00;99939.84;5012647;28;20313;-59
2021/12/19 04:04:08;;;;;;;7.50;6.13;;;;;;;2.49;100.00;99933.94;5012562;28;20234;-60
2021/12/19 04:06:35;;;;;;;6.67;5.80;;;;;;;2.35;100.00;99924.41;5012505;28;20198;-62
2021/12/19 04:09:02;;;;;;;7.33;6.63;;;;;;;2.48;100.00;99939.91;5012503;28;20630;-60
2021/12/19 04:11:30;;;;;;;8.43;6.23;;;;;;;2.46;100.00;99930.50;5012399;28;20233;-61
2021/12/19 04:13:57;;;;;;;8.30;6.37;;;;;;;2.43;100.00;99930.47;5012531;28;20772;-61
2021/12/19 04:16:24;;;;;;;6.80;5.87;;;;;;;2.51;100.00;99932.25;5012289;28;20205;-62
2021/12/19 04:18:53;;;;;;;7.83;6.33;;;;;;;2.36;100.00;99926.13;5012347;28;20225;-62
2021/12/19 04:21:19;;;;;;;7.50;5.83;;;;;;;2.33;100.00;99941.47;5012241;28;20288;-61
2021/12/19 04:23:46;;;;;;;6.87;6.27;;;;;;;2.38;100.00;99926.97;5016563;28;20199;-60
2021/12/19 04:26:13;;;;;;;6.80;6.10;;;;;;;2.22;100.00;99935.38;5031606;28;20193;-55
2021/12/19 04:28:41;;;;;;;8.70;6.53;;;;;;;2.23;100.00;99937.09;5040477;28;20312;-55
2021/12/19 04:31:08;;;;;;;6.43;5.83;;;;;;;2.24;100.00;99939.66;5041317;28;20201;-61
2021/12/19 04:33:38;;;;;;;5.93;5.33;;;;;;;2.43;100.00;99946.69;5037294;28;20242;-61
2021/12/19 04:36:08;;;;;;;6.40;5.80;;;;;;;2.36;100.00;99941.50;5041528;28;20689;-62
2021/12/19 04:44:42;;;;;;;5.83;5.23;;;;;;;2.40;100.00;99933.00;5000884;28;20626;-62
2021/12/19 04:58:22;;;;;;;7.13;5.73;;;;;;;2.62;100.00;99922.13;5031013;28;20278;-62
2021/12/19 05:01:00;;;;;;;6.13;5.40;;;;;;;2.55;100.00;99920.34;5030904;28;20221;-62
2021/12/19 05:03:39;;;;;;;6.97;6.27;;;;;;;2.52;100.00;99904.94;5029936;28;20241;-60
2021/12/19 05:06:12;;;;;;;8.33;6.40;;;;;;;2.47;100.00;99907.47;5030718;28;20235;-56
2021/12/19 05:14:12;;;;;;;6.80;6.17;;;;;;;2.40;100.00;99908.22;5030765;28;20283;-62
2021/12/19 05:16:43;;;;;;;7.20;6.60;;;;;;;2.26;100.00;99906.41;5030598;28;20348;-62
2021/12/19 05:19:20;;;;;;;6.53;5.93;;;;;;;2.23;100.00;99921.72;5029917;28;20229;-62
2021/12/19 05:21:48;;;;;;;7.13;6.30;;;;;;;2.31;100.00;99915.81;5029869;28;20214;-62
2021/12/19 05:24:22;;;;;;;7.50;6.37;;;;;;;2.22;100.00;99914.88;5030333;28;20218;-55
2021/12/19 05:26:49;;;;;;;6.83;6.23;;;;;;;2.22;100.00;99914.88;5030356;28;20222;-56
2021/12/19 05:29:17;;;;;;;8.77;7.07;;;;;;;2.25;100.00;99902.97;5030360;28;20725;-55
2021/12/19 05:31:45;;;;;;;9.20;6.60;;;;;;;2.27;100.00;99902.97;5030495;28;20701;-56
2021/12/19 05:34:12;;;;;;;7.57;6.87;;;;;;;2.23;100.00;99903.78;5029684;28;20248;-56
2021/12/19 05:45:13;;;;;;;7.63;6.50;;;;;;;2.09;100.00;99904.50;5029858;28;20735;-55
2021/12/19 05:47:40;;;;;;;8.27;6.87;;;;;;;2.14;100.00;99902.00;5028638;28;20229;-55
2021/12/19 05:50:08;;;;;;;8.97;6.90;;;;;;;2.23;100.00;99908.91;5037232;28;20228;-56
2021/12/19 05:52:35;;;;;;;8.00;7.20;;;;;;;2.21;100.00;99897.78;5030643;28;20224;-56
2021/12/19 05:55:04;;;;;;;8.83;6.57;;;;;;;2.25;100.00;99902.13;5030026;28;20239;-56
2021/12/19 05:57:31;;;;;;;9.50;7.17;;;;;;;2.16;100.00;99903.72;5029191;28;20221;-56
2021/12/19 05:59:58;;;;;;;8.33;7.17;;;;;;;2.27;100.00;99908.94;5030016;28;20225;-56
2021/12/19 06:02:25;;;;;;;7.63;6.77;;;;;;;2.25;100.00;99912.34;5029630;28;20624;-55
2021/12/19 06:04:52;;;;;;;9.67;6.63;;;;;;;2.14;100.00;99902.81;5029643;28;20223;-56
2021/12/19 06:07:19;;;;;;;7.37;6.67;;;;;;;2.13;100.00;99900.28;5029532;28;20220;-55
2021/12/19 06:09:46;;;;;;;7.43;6.60;;;;;;;2.19;100.00;99903.75;5028322;28;20227;-55
2021/12/19 06:12:15;;;;;;;7.10;6.40;;;;;;;2.31;100.00;99897.91;5028486;28;20220;-55
2021/12/19 06:14:42;;;;;;;6.57;5.87;;;;;;;2.39;100.00;99887.72;5027792;28;20666;-55
2021/12/19 06:17:09;;;;;;;7.30;6.03;;;;;;;2.40;100.00;99895.44;5028549;28;20615;-55
2021/12/19 06:19:36;;;;;;;6.90;6.20;;;;;;;2.43;100.00;99886.91;5029874;28;20218;-55
2021/12/19 06:22:05;;;;;;;6.30;5.70;;;;;;;2.47;100.00;99891.25;5028484;28;20223;-54
2021/12/19 06:24:32;;;;;;;6.13;5.60;;;;;;;2.55;100.00;99895.59;5028351;28;20225;-55
2021/12/19 06:27:00;;;;;;;6.90;6.00;;;;;;;2.63;100.00;99893.09;5028878;28;20222;-56
2021/12/19 06:29:29;;;;;;;5.90;5.30;;;;;;;2.49;100.00;99879.28;5029015;28;20312;-56
2021/12/19 06:31:57;;;;;;;5.90;5.43;;;;;;;2.52;100.00;99892.13;5037397;28;20223;-54
2021/12/19 06:34:25;;;;;;;6.90;6.30;;;;;;;2.54;100.00;99881.06;5031986;28;20225;-56
2021/12/19 06:36:52;;;;;;;7.03;6.30;;;;;;;2.63;100.00;99876.84;5037843;28;20256;-54
2021/12/19 06:39:20;;;;;;;6.87;5.50;;;;;;;2.71;100.00;99867.53;5036637;28;20229;-54
2021/12/19 06:41:47;;;;;;;7.40;6.13;;;;;;;2.85;100.00;99858.22;5038488;28;20258;-56
2021/12/19 06:44:14;;;;;;;6.13;5.43;;;;;;;2.79;100.00;99856.50;5036811;28;20609;-55
2021/12/19 06:46:42;;;;;;;7.70;6.20;;;;;;;2.81;100.00;99862.50;5037981;28;20232;-63
2021/12/19 06:49:10;;;;;;;6.13;5.53;;;;;;;2.90;100.00;99862.56;5038431;28;20781;-64
2021/12/19 06:51:37;;;;;;;5.67;5.10;;;;;;;2.98;100.00;99864.31;5038286;28;20316;-63
2021/12/19 06:54:05;;;;;;;5.87;5.27;;;;;;;3.05;100.00;99855.84;5037629;28;20228;-64
2021/12/19 06:56:32;;;;;;;5.83;5.23;;;;;;;3.01;100.00;99848.97;5039373;28;20714;-65
2021/12/19 06:58:58;;;;;;;6.90;5.20;;;;;;;3.21;100.00;99852.50;5033189;28;20237;-60
2021/12/19 07:01:26;;;;;;;11.10;5.50;;;;;;;3.23;100.00;99850.81;5034728;28;20667;-63
2021/12/19 07:03:54;;;;;;;6.47;5.63;;;;;;;3.32;100.00;99853.44;5036877;28;20610;-61
2021/12/19 07:06:21;;;;;;;7.70;5.30;;;;;;;3.37;100.00;99854.31;5038368;28;20607;-61
2021/12/19 07:08:48;;;;;;;15.63;6.90;;;;;;;3.39;100.00;99850.03;5033414;28;20334;-61
2021/12/19 07:11:15;;;;;;;7.97;6.63;;;;;;;3.42;100.00;99847.50;5032983;28;20220;-63
2021/12/19 07:13:42;;;;;;;5.67;5.17;;;;;;;3.52;100.00;99849.25;5033246;28;20218;-63
2021/12/19 07:16:09;;;;;;;5.73;5.20;;;;;;;3.57;100.00;99852.72;5032818;28;20233;-63
2021/12/19 07:18:37;;;;;;;5.97;5.37;;;;;;;3.62;100.00;99851.00;5032577;28;20224;-63
2021/12/19 07:21:07;;;;;;;6.37;5.27;;;;;;;3.61;100.00;99854.44;5047365;28;20257;-63
2021/12/19 07:23:34;;;;;;;9.40;6.40;;;;;;;3.70;100.00;99855.34;5051411;28;20266;-64
2021/12/19 07:26:02;;;;;;;6.13;5.53;;;;;;;3.70;100.00;99847.63;5032013;28;20234;-55
2021/12/19 07:28:28;;;;;;;47.10;7.73;;;;;;;3.71;100.00;99854.50;5031953;28;20310;-55
2021/12/19 07:30:57;;;;;;;28.60;7.00;;;;;;;3.50;100.00;99839.84;5031774;28;20215;-55
2021/12/19 07:33:24;;;;;;;85.33;10.37;;;;;;;3.54;100.00;99831.31;5031844;28;20713;-54
2021/12/19 07:35:52;;;;;;;23.83;6.67;;;;;;;3.60;100.00;99852.75;5032335;28;20237;-55
2021/12/19 07:38:27;;;;;;;195.17;16.23;;;;;;;3.60;100.00;99851.88;5032641;28;20635;-55
2021/12/19 07:40:54;;;;;;;90.70;10.80;;;;;;;3.46;100.00;99831.28;5031898;28;20679;-55
2021/12/19 07:43:22;;;;;;;74.50;10.10;;;;;;;3.69;100.00;99845.91;5032105;28;20699;-55
2021/12/19 07:45:49;;;;;;;185.70;13.87;;;;;;;3.77;100.00;99850.22;5032019;28;20250;-54
2021/12/19 07:48:16;;;;;;;143.00;14.53;;;;;;;3.68;100.00;99833.94;5031712;28;20232;-55
2021/12/19 07:50:43;;;;;;;107.57;13.53;;;;;;;3.89;100.00;99844.28;5043895;28;20619;-54
2021/12/19 07:53:10;;;;;;;80.37;10.47;;;;;;;3.96;100.00;99840.88;5032047;28;20220;-54
2021/12/19 07:55:38;;;;;;;95.83;10.13;;;;;;;3.87;100.00;99838.28;5031156;28;20241;-55
2021/12/19 07:58:05;;;;;;;201.33;18.87;;;;;;;3.91;100.00;99833.16;5033422;28;20331;-55
2021/12/19 08:00:32;;;;;;;103.37;11.80;;;;;;;3.99;100.00;99841.75;5034002;28;20223;-55
2021/12/19 08:02:59;;;;;;;51.00;8.67;;;;;;;4.03;100.00;99836.63;5030216;28;20242;-56
2021/12/19 08:05:26;;;;;;;161.53;15.67;;;;;;;4.08;100.00;99827.19;5030352;28;20220;-64
2021/12/19 08:08:00;;;;;;;55.10;8.10;;;;;;;3.97;100.00;99816.91;5030215;28;20217;-64
2021/12/19 08:13:12;;;;;;;34.20;7.63;;;;;;;4.08;99.62;99820.34;5032354;28;20243;-64
2021/12/19 08:15:39;;;;;;;50.93;8.97;;;;;;;4.13;98.63;99812.66;5031452;28;20223;-62
2021/12/19 08:18:07;;;;;;;150.23;15.60;;;;;;;4.15;99.36;99816.09;5031057;28;20262;-64
2021/12/19 08:20:34;;;;;;;9.43;6.07;;;;;;;4.05;99.17;99797.25;5029235;28;20752;-63
2021/12/19 08:23:01;;;;;;;11.80;6.63;;;;;;;4.17;99.36;99806.69;5031079;28;20220;-55
2021/12/19 08:25:28;;;;;;;18.47;6.60;;;;;;;4.01;99.97;99773.25;5031578;28;20221;-63
2021/12/19 08:27:56;;;;;;;30.87;7.37;;;;;;;4.24;99.50;99791.28;5031379;28;20260;-63
2021/12/19 08:30:25;;;;;;;10.77;5.30;;;;;;;4.18;99.14;99780.13;5031924;28;20722;-63
2021/12/19 08:32:55;;;;;;;18.60;5.80;;;;;;;4.26;98.79;99789.56;5030900;28;20221;-58
2021/12/19 08:35:22;;;;;;;23.07;6.57;;;;;;;4.26;99.25;99789.56;5031487;28;20232;-64
2021/12/19 08:37:49;;;;;;;102.13;11.60;;;;;;;4.35;99.57;99781.88;5030663;28;20228;-63
2021/12/19 08:40:16;;;;;;;35.57;9.20;;;;;;;4.40;98.20;99775.88;5031322;28;20257;-63
2021/12/19 08:42:43;;;;;;;84.83;10.20;;;;;;;4.43;99.05;99770.72;5031538;28;20767;-55
2021/12/19 08:45:11;;;;;;;30.20;8.03;;;;;;;4.44;99.40;99764.72;5031219;28;20213;-55
2021/12/19 08:47:40;;;;;;;24.63;6.47;;;;;;;4.37;99.59;99772.44;5030291;28;20295;-55
2021/12/19 08:50:08;;;;;;;14.57;6.50;;;;;;;4.39;99.10;99769.88;5035125;28;20620;-55
2021/12/19 08:52:36;;;;;;;57.93;8.33;;;;;;;4.37;99.59;99762.16;5051012;28;20250;-55
2021/12/19 08:55:04;;;;;;;38.07;7.33;;;;;;;4.29;99.27;99738.16;5050287;28;20544;-54
2021/12/19 08:57:31;;;;;;;47.40;7.67;;;;;;;4.38;98.31;99755.31;5050985;28;20220;-54
2021/12/19 08:59:58;;;;;;;10.10;5.90;;;;;;;4.32;98.35;99753.59;5034714;28;20323;-55
2021/12/19 09:02:25;;;;;;;132.07;13.93;;;;;;;4.38;98.52;99748.47;5030360;28;20719;-55
2021/12/19 09:04:54;;;;;;;63.47;8.90;;;;;;;4.47;98.32;99752.75;5030767;28;20671;-54
2021/12/19 09:07:21;;;;;;;91.20;11.13;;;;;;;4.50;98.33;99749.31;5029690;28;20213;-62
2021/12/19 09:09:49;;;;;;;255.20;25.67;;;;;;;4.53;98.91;99742.44;5030291;28;20714;-61
2021/12/19 09:12:17;;;;;;;277.03;25.07;;;;;;;4.58;98.19;99739.88;5030643;28;20279;-55
2021/12/19 09:14:44;;;;;;;67.63;11.00;;;;;;;4.68;98.16;99739.88;5030297;28;20332;-55
2021/12/19 09:17:11;;;;;;;35.03;8.90;;;;;;;4.62;97.18;99721.03;5029711;28;20225;-55
2021/12/19 09:19:38;;;;;;;21.23;7.03;;;;;;;4.61;97.89;99717.59;5032986;28;20727;-55
2021/12/19 09:22:07;;;;;;;21.93;7.47;;;;;;;4.66;98.50;99702.16;5049825;28;20220;-55
2021/12/19 09:24:35;;;;;;;17.13;5.90;;;;;;;4.75;97.21;99715.84;5050587;28;20223;-56
2021/12/19 09:27:03;;;;;;;169.27;16.73;;;;;;;4.90;97.03;99708.94;5032369;28;20213;-55
2021/12/19 09:29:30;;;;;;;182.43;16.00;;;;;;;4.97;96.03;99687.50;5030033;28;20308;-55
2021/12/19 09:31:59;;;;;;;37.77;8.57;;;;;;;5.06;95.26;99693.47;5029096;28;20221;-55
2021/12/19 09:34:27;;;;;;;16.70;5.93;;;;;;;5.15;93.77;99689.16;5030221;28;20224;-56
2021/12/19 09:36:54;;;;;;;30.90;7.30;;;;;;;5.00;95.28;99649.75;5030245;28;20231;-55
2021/12/19 09:39:23;;;;;;;15.43;6.00;;;;;;;5.11;94.78;99663.44;5030144;28;20220;-55
2021/12/19 09:41:54;;;;;;;24.30;11.43;;;;;;;5.18;95.20;99666.84;5028924;28;20312;-55
2021/12/19 09:44:22;;;;;;;17.03;10.80;;;;;;;5.08;96.36;99624.84;5028937;28;20727;-56
2021/12/19 09:46:50;;;;;;;25.30;10.23;;;;;;;5.09;95.23;99620.56;5028551;28;20314;-54
2021/12/19 09:49:19;;;;;;;13.30;6.83;;;;;;;5.23;94.43;99623.06;5029542;28;20216;-57
2021/12/19 09:51:47;;;;;;;67.40;11.13;;;;;;;5.31;94.37;99642.72;5029971;28;20228;-54
2021/12/19 09:54:15;;;;;;;77.83;9.70;;;;;;;5.31;93.66;99632.44;5029426;28;20224;-54
2021/12/19 09:56:44;;;;;;;26.53;7.10;;;;;;;5.28;93.56;99616.19;5029892;28;20225;-56
2021/12/19 09:59:13;;;;;;;7.50;5.20;;;;;;;5.23;93.90;99628.22;5029859;28;20613;-54
2021/12/19 10:01:41;;;;;;;24.37;7.20;;;;;;;5.21;94.00;99622.22;5029663;28;20696;-55
2021/12/19 10:04:29;;;;;;;40.33;8.03;;;;;;;5.07;93.83;99602.59;5029725;28;20240;-55
2021/12/19 10:07:07;;;;;;;168.33;16.57;;;;;;;5.22;94.01;99618.78;5029827;28;20748;-55
2021/12/19 10:09:36;;;;;;;145.67;14.70;;;;;;;5.26;93.17;99605.03;5009775;28;20684;-55
2021/12/19 10:12:35;;;;;;;40.97;9.00;;;;;;;5.20;93.59;99592.19;5009355;28;20709;-55
2021/12/19 10:15:03;;;;;;;82.97;11.60;;;;;;;5.28;94.51;99600.75;5009221;28;20283;-56
2021/12/19 10:17:30;;;;;;;107.57;14.10;;;;;;;5.20;93.20;99566.47;5010044;28;20300;-56
2021/12/19 10:19:59;;;;;;;258.13;22.87;;;;;;;5.31;93.00;99590.41;5020607;28;20217;-54
2021/12/19 10:22:29;;;;;;;57.20;8.70;;;;;;;5.43;92.02;99591.19;5049490;28;20228;-58
2021/12/19 10:24:59;;;;;;;29.60;8.13;;;;;;;5.40;92.99;99587.81;5049454;28;20221;-58
2021/12/19 10:27:39;;;;;;;25.57;7.90;;;;;;;5.49;91.76;99587.72;5049579;28;20224;-56
2021/12/19 10:30:12;;;;;;;12.90;6.57;;;;;;;5.42;93.31;99583.47;5048964;28;20609;-57
2021/12/19 10:32:54;;;;;;;13.13;6.80;;;;;;;5.40;91.24;99574.94;5049363;28;20278;-56
2021/12/19 10:35:23;;;;;;;103.23;11.87;;;;;;;5.44;91.76;99580.03;5049549;28;20234;-55
2021/12/19 10:37:51;;;;;;;78.23;9.60;;;;;;;5.47;92.14;99572.28;5049513;28;20220;-55
2021/12/19 10:40:18;;;;;;;171.03;16.57;;;;;;;5.53;93.73;99570.56;5049404;28;20220;-55
2021/12/19 10:42:56;;;;;;;120.63;14.97;;;;;;;5.57;93.18;99564.50;5050100;28;20227;-54
2021/12/19 10:45:30;;;;;;;39.83;8.47;;;;;;;5.65;91.89;99553.25;5052627;28;20760;-57
2021/12/19 10:48:14;;;;;;;73.77;10.97;;;;;;;5.74;92.39;99557.50;5053534;28;20285;-64
2021/12/19 10:50:47;;;;;;;69.60;10.57;;;;;;;5.77;92.00;99549.72;5039700;28;20928;-63
2021/12/19 10:53:15;;;;;;;65.07;10.53;;;;;;;5.75;92.05;99542.03;5033396;28;20256;-55
2021/12/19 10:55:45;;;;;;;31.10;8.03;;;;;;;5.73;91.72;99536.03;5033027;28;20229;-55
2021/12/19 10:58:31;;;;;;;46.00;11.50;;;;;;;5.60;93.44;99526.72;5033513;28;20660;-55
2021/12/19 11:01:04;;;;;;;21.83;9.80;;;;;;;5.63;93.57;99518.13;5032527;28;20327;-55
2021/12/19 11:03:37;;;;;;;18.37;7.10;;;;;;;5.72;93.81;99516.31;5033068;28;20255;-54
2021/12/19 11:06:15;;;;;;;12.43;8.10;;;;;;;5.82;93.24;99504.19;5032606;28;20295;-55
2021/12/19 11:08:43;;;;;;;13.93;7.20;;;;;;;5.74;93.25;99491.41;5032863;28;20232;-55
2021/12/19 11:11:10;;;;;;;35.27;8.87;;;;;;;5.86;93.13;99494.72;5032827;28;20610;-56
2021/12/19 11:13:39;;;;;;;129.73;15.90;;;;;;;5.95;92.90;99484.34;5033110;28;20232;-55
2021/12/19 11:16:06;;;;;;;126.77;16.13;;;;;;;6.05;92.48;99483.38;5032185;28;20307;-55
2021/12/19 11:18:33;;;;;;;67.73;10.77;;;;;;;6.06;92.69;99477.34;5032795;28;20221;-55
2021/12/19 11:21:00;;;;;;;50.67;10.10;;;;;;;6.14;92.40;99472.97;5046764;28;20230;-56
2021/12/19 11:23:27;;;;;;;86.23;14.87;;;;;;;6.19;92.32;99466.03;5052922;28;20217;-57
2021/12/19 11:25:56;;;;;;;310.83;28.13;;;;;;;6.14;93.35;99465.22;5052535;28;20219;-64
2021/12/19 11:28:23;;;;;;;259.00;24.20;;;;;;;6.09;94.04;99459.28;5052912;28;20235;-64
2021/12/19 11:30:54;;;;;;;114.70;15.23;;;;;;;6.13;92.54;99454.06;5052076;28;20610;-64
2021/12/19 11:33:34;;;;;;;55.87;10.43;;;;;;;6.13;91.95;99445.47;5052627;28;20231;-64
2021/12/19 11:36:03;;;;;;;37.93;10.50;;;;;;;6.14;91.81;99442.88;5052295;28;20699;-63
2021/12/19 11:38:31;;;;;;;18.03;8.60;;;;;;;6.19;91.49;99441.13;5052426;28;20315;-64
2021/12/19 11:41:07;;;;;;;17.13;7.63;;;;;;;6.19;91.83;99435.13;5052265;28;20730;-63
2021/12/19 11:43:37;;;;;;;12.70;7.20;;;;;;;6.26;90.61;99423.84;5052323;28;20711;-64
2021/12/19 11:46:13;;;;;;;9.90;7.40;;;;;;;6.25;91.47;99421.28;5051764;28;20700;-63
2021/12/19 11:48:40;;;;;;;12.17;7.60;;;;;;;6.30;91.85;99417.78;5052165;28;20220;-63
2021/12/19 11:51:09;;;;;;;17.67;7.93;;;;;;;6.30;92.31;99406.63;5036811;28;20232;-64
2021/12/19 11:53:39;;;;;;;15.80;7.77;;;;;;;6.26;91.65;99410.09;5031904;28;20229;-64
2021/12/19 11:56:09;;;;;;;11.53;7.80;;;;;;;6.37;91.23;99413.38;5031063;28;20229;-66
2021/12/19 11:58:45;;;;;;;12.27;8.10;;;;;;;6.39;90.77;99399.63;5032075;28;20227;-63
2021/12/19 12:01:16;;;;;;;11.60;8.57;;;;;;;6.36;91.44;99388.47;5032084;28;20225;-65
2021/12/19 12:03:48;;;;;;;10.97;8.30;;;;;;;6.32;91.90;99385.09;5031959;28;20240;-63
2021/12/19 12:06:40;;;;;;;11.47;8.77;;;;;;;6.31;92.06;99383.41;5032001;28;20213;-64
2021/12/19 12:09:19;;;;;;;11.13;7.77;;;;;;;6.42;90.32;99376.38;5032292;28;20647;-64
2021/12/19 12:12:19;;;;;;;9.37;7.03;;;;;;;6.48;88.88;99363.38;5031468;28;20663;-62
2021/12/19 12:15:07;;;;;;;9.17;6.80;;;;;;;6.53;87.83;99377.06;5025605;28;20221;-65
2021/12/19 12:17:43;;;;;;;9.73;6.93;;;;;;;6.49;88.04;99362.50;5031961;28;20275;-60
2021/12/19 12:20:16;;;;;;;11.93;7.57;;;;;;;6.46;88.37;99364.28;5031626;28;20224;-64
2021/12/19 12:23:00;;;;;;;9.47;7.17;;;;;;;6.47;86.92;99365.97;5032328;28;20651;-66
2021/12/19 12:25:34;;;;;;;8.30;7.00;;;;;;;6.50;86.75;99361.66;5030753;28;20201;-62
2021/12/19 12:28:05;;;;;;;9.37;6.43;;;;;;;6.53;87.29;99364.19;5031878;28;20208;-63